Taraz Airport
UADD : now visible

Airfield :











YOU CAN JOIN US ON...

 
LOGIN :

Register | Disclaimer

   EN    FR    IT 

 









Legend :    VFR   Marginal VFR   IFR   Intensive IFR   Very Intensive IFR
Visi :
Ceiling :
>= 8 km
>= 3000ft
5 to 8 km
1000 to 3000 ft
1500m to 5 km
500 to 1000 ft
800 to 1500m
200 to 500 ft
< 800m
< 200 ft
Symbols :   Thunderstorms  Fog  Heavy snow  Heavy precipitations  Wind > 20 kt






- Airport Elevation : 2184 ft
- IATA code : DMB


UADD - Taraz

CURRENT METAR :
  • 302330Z 01001MPS 3400 BR OVC014 M09/M10 Q1028 R13/890250 NOSIG RMK MT OBSC QFE714/0952

EXPIRED METARs :
  • 302300Z 00000MPS 3300 BR OVC013 M09/M10 Q1029 R13/890250 NOSIG RMK MT OBSC QFE714/0952
  • 302230Z VRB01MPS 3200 BR OVC014 M09/M10 Q1029 R13/890250 NOSIG RMK MT OBSC QFE714/0952
  • 302200Z 02001MPS 3100 BR OVC013 M09/M10 Q1029 R13/890250 NOSIG RMK MT OBSC QFE714/0952
  • 302130Z 02001MPS 3300 BR OVC014 M09/M10 Q1029 R13/890250 NOSIG RMK MT OBSC QFE714/0952
  • 302100Z 02001MPS 3600 BR OVC014 M09/M10 Q1029 R13/890250 NOSIG RMK MT OBSC QFE714/0952

TAF TAF UADD
Valid from the 01 at 00:00 until the 01 at 09:00 UTC


302300Z 0100/0109 02003G08MPS 3100 BR BKN011 OVC030
UAAA FIR / Asia



MET'MAP, your aeronautical weather chart ! - Copyright ORBIFLY December 2007 - Disclaimer

ORBIFLY MET'MAP TEAM :

Programming & Development : Alexandra Zaïnal
Concept & original design : Baudouin d'Aumeries
Assistance for programming : Marc-Olivier Méhu
Technical & hardware support : Manuel Goepfert

Contact : metmap@orbifly.com




SOURCES & CREDITS :

   NOAA       Earth
Advisory